createdAt,value
2022-09-27T00:01:15.182Z,2.73
2022-09-27T00:03:43.741Z,2.73
2022-09-27T00:06:15.547Z,2.20
2022-09-27T00:08:44.604Z,2.23
2022-09-27T00:11:19.004Z,2.67
2022-09-27T00:13:47.031Z,3.30
2022-09-27T00:16:15.332Z,2.77
2022-09-27T00:18:43.657Z,2.23
2022-09-27T00:21:13.946Z,2.70
2022-09-27T00:23:42.432Z,2.57
2022-09-27T00:26:15.583Z,2.27
2022-09-27T00:28:45.002Z,2.90
2022-09-27T00:31:21.520Z,3.43
2022-09-27T00:33:50.790Z,3.00
2022-09-27T00:36:19.782Z,3.30
2022-09-27T00:38:48.201Z,3.23
2022-09-27T00:41:18.556Z,3.63
2022-09-27T00:43:50.763Z,3.20
2022-09-27T00:46:27.037Z,2.40
2022-09-27T00:49:04.675Z,3.17
2022-09-27T00:51:35.995Z,2.73
2022-09-27T00:54:04.735Z,3.00
2022-09-27T00:56:33.598Z,3.13
2022-09-27T00:59:08.332Z,2.43
2022-09-27T01:01:36.702Z,3.27
2022-09-27T01:04:08.704Z,2.47
2022-09-27T01:06:37.561Z,2.37
2022-09-27T01:09:06.150Z,3.47
2022-09-27T01:11:42.294Z,2.40
2022-09-27T01:14:35.324Z,2.50
2022-09-27T01:17:12.418Z,3.30
2022-09-27T01:20:09.152Z,3.37
2022-09-27T01:22:43.508Z,2.70
2022-09-27T01:25:28.980Z,2.30
2022-09-27T01:28:19.039Z,2.07
2022-09-27T01:30:53.171Z,2.80
2022-09-27T01:33:47.619Z,2.43
2022-09-27T01:36:27.137Z,2.10
2022-09-27T01:39:08.823Z,2.07
2022-09-27T01:41:41.696Z,3.10
2022-09-27T01:44:16.317Z,2.87
2022-09-27T01:46:49.413Z,2.43
2022-09-27T01:49:19.399Z,2.97
2022-09-27T01:51:53.507Z,2.47
2022-09-27T01:54:28.988Z,2.00
2022-09-27T01:57:00.153Z,3.03
2022-09-27T01:59:32.555Z,2.90
2022-09-27T02:02:05.890Z,3.30
2022-09-27T02:04:35.351Z,3.03
2022-09-27T02:07:07.751Z,2.17
2022-09-27T02:09:40.664Z,2.73
2022-09-27T02:12:13.118Z,2.60
2022-09-27T02:14:45.767Z,2.57
2022-09-27T02:17:25.280Z,2.60
2022-09-27T02:19:57.498Z,3.47
2022-09-27T02:22:35.072Z,3.37
2022-09-27T02:25:12.042Z,2.87
2022-09-27T02:27:45.554Z,2.57
2022-09-27T02:30:16.007Z,2.80
2022-09-27T02:32:45.924Z,2.70
2022-09-27T02:35:18.627Z,2.77
2022-09-27T02:37:46.916Z,2.03
2022-09-27T02:40:15.348Z,2.90
2022-09-27T02:42:45.511Z,2.87
2022-09-27T02:45:15.471Z,3.67
2022-09-27T02:47:59.168Z,2.43
2022-09-27T02:50:46.158Z,2.90
2022-09-27T02:53:23.307Z,2.80
2022-09-27T02:55:56.728Z,3.13
2022-09-27T02:58:35.624Z,3.20
2022-09-27T03:01:10.296Z,2.93
2022-09-27T03:03:47.774Z,3.40
2022-09-27T03:06:19.764Z,2.80
2022-09-27T03:08:48.370Z,2.97
2022-09-27T03:11:16.718Z,3.37
2022-09-27T03:14:07.182Z,3.33
2022-09-27T03:16:34.238Z,3.27
2022-09-27T03:19:03.894Z,3.07
2022-09-27T03:21:31.824Z,3.20
2022-09-27T03:23:59.857Z,3.00
2022-09-27T03:26:27.803Z,3.30
2022-09-27T03:28:55.930Z,2.77
2022-09-27T03:31:24.112Z,3.47
2022-09-27T03:33:52.131Z,2.83
2022-09-27T03:36:21.582Z,2.63
2022-09-27T03:38:49.694Z,3.23
2022-09-27T03:41:17.764Z,3.30
2022-09-27T03:43:45.748Z,4.10
2022-09-27T03:46:13.776Z,4.67
2022-09-27T03:48:42.725Z,3.00
2022-09-27T03:51:12.503Z,3.27
2022-09-27T03:53:42.969Z,4.00
2022-09-27T03:56:11.249Z,3.83
2022-09-27T03:58:39.359Z,3.50
2022-09-27T04:01:08.062Z,3.53
2022-09-27T04:03:36.376Z,4.00
2022-09-27T04:06:04.989Z,4.07
2022-09-27T04:08:33.232Z,2.87
2022-09-27T04:11:03.656Z,5.03
2022-09-27T04:13:31.804Z,2.87
2022-09-27T04:15:59.769Z,3.37
2022-09-27T04:18:27.796Z,3.67
2022-09-27T04:20:55.892Z,4.30
2022-09-27T04:23:29.043Z,3.43
2022-09-27T04:25:57.843Z,4.10
2022-09-27T04:28:28.136Z,5.03
2022-09-27T04:30:56.164Z,4.87
2022-09-27T04:33:27.290Z,3.27
2022-09-27T04:36:12.760Z,3.90
2022-09-27T04:38:41.224Z,4.20
2022-09-27T04:41:10.534Z,4.40
2022-09-27T04:43:39.925Z,3.63
2022-09-27T04:46:08.306Z,4.20
2022-09-27T04:48:37.375Z,4.63
2022-09-27T04:51:05.454Z,4.93
2022-09-27T04:53:33.390Z,2.80
2022-09-27T04:56:06.944Z,4.10
2022-09-27T04:58:35.698Z,4.43
2022-09-27T05:01:05.989Z,4.70
2022-09-27T05:03:34.659Z,5.93
2022-09-27T05:06:03.052Z,3.43
2022-09-27T05:08:31.152Z,5.70
2022-09-27T05:10:59.107Z,4.77
2022-09-27T05:13:28.068Z,3.60
2022-09-27T05:15:56.029Z,4.20
2022-09-27T05:18:25.381Z,5.07
2022-09-27T05:20:53.656Z,4.37
2022-09-27T05:23:21.588Z,4.67
2022-09-27T05:25:49.547Z,3.40
2022-09-27T05:28:17.619Z,4.77
2022-09-27T05:30:45.812Z,4.27
2022-09-27T05:33:13.900Z,3.70
2022-09-27T05:35:47.600Z,4.13
2022-09-27T05:38:15.602Z,4.17
2022-09-27T05:40:45.523Z,4.57
2022-09-27T05:43:13.577Z,4.17
2022-09-27T05:45:41.691Z,4.37
2022-09-27T05:48:10.101Z,3.33
2022-09-27T05:50:38.054Z,4.67
2022-09-27T05:53:08.212Z,4.60
2022-09-27T05:55:36.806Z,5.70
2022-09-27T05:58:08.837Z,4.77
2022-09-27T06:00:37.115Z,4.20
2022-09-27T06:03:07.934Z,4.60
2022-09-27T06:05:37.619Z,3.30
2022-09-27T06:08:08.821Z,4.90
2022-09-27T06:10:36.878Z,4.83
2022-09-27T06:13:06.821Z,5.87
2022-09-27T06:15:36.352Z,4.50
2022-09-27T06:18:06.413Z,4.73
2022-09-27T06:20:34.999Z,4.93
2022-09-27T06:23:09.445Z,5.03
2022-09-27T06:25:37.630Z,5.70
2022-09-27T06:28:06.050Z,4.80
2022-09-27T06:30:34.430Z,5.40
2022-09-27T06:33:04.193Z,4.40
2022-09-27T06:35:32.993Z,4.43
2022-09-27T06:38:04.791Z,4.77
2022-09-27T06:40:34.276Z,4.37
2022-09-27T06:43:05.557Z,5.20
2022-09-27T06:45:35.582Z,2.87
2022-09-27T06:48:03.823Z,5.53
2022-09-27T06:50:32.998Z,4.60
2022-09-27T06:53:01.472Z,5.00
2022-09-27T06:55:29.672Z,4.90
2022-09-27T06:58:18.100Z,4.87
2022-09-27T07:00:46.877Z,5.07
2022-09-27T07:03:15.570Z,4.53
2022-09-27T07:05:43.866Z,4.50
2022-09-27T07:08:13.052Z,3.33
2022-09-27T07:10:41.548Z,4.30
2022-09-27T07:13:13.239Z,4.97
2022-09-27T07:15:43.107Z,4.07
2022-09-27T07:18:11.164Z,4.77
2022-09-27T07:20:39.965Z,3.63
2022-09-27T07:23:09.602Z,5.03
2022-09-27T07:25:37.629Z,4.43
2022-09-27T07:28:07.609Z,3.97
2022-09-27T07:30:38.756Z,5.43
2022-09-27T07:33:07.593Z,4.73
2022-09-27T07:35:37.011Z,4.00
2022-09-27T07:38:05.465Z,4.80
2022-09-27T07:40:33.634Z,5.07
2022-09-27T07:43:01.725Z,4.80
2022-09-27T07:45:30.342Z,4.83
2022-09-27T07:47:59.869Z,4.67
2022-09-27T07:50:28.940Z,5.37
2022-09-27T07:52:57.391Z,4.23
2022-09-27T07:55:25.489Z,3.50
2022-09-27T07:57:53.751Z,4.23
2022-09-27T08:00:22.106Z,4.57
2022-09-27T08:02:50.021Z,4.40
2022-09-27T08:05:19.605Z,3.70
2022-09-27T08:07:47.474Z,5.23
2022-09-27T08:10:15.644Z,3.80
2022-09-27T08:12:43.656Z,4.40
2022-09-27T08:15:12.414Z,4.67
2022-09-27T08:17:40.516Z,4.60
2022-09-27T08:20:09.077Z,5.90
2022-09-27T08:22:43.888Z,5.13
2022-09-27T08:25:11.915Z,4.97
2022-09-27T08:27:40.185Z,4.90
2022-09-27T08:30:09.108Z,4.27
2022-09-27T08:32:38.426Z,4.03
2022-09-27T08:35:08.607Z,4.73
2022-09-27T08:37:36.713Z,4.20
2022-09-27T08:40:07.496Z,4.03
2022-09-27T08:42:45.234Z,4.33
2022-09-27T08:45:20.987Z,3.70
2022-09-27T08:47:52.319Z,3.87
2022-09-27T08:50:27.119Z,4.07
2022-09-27T08:52:59.758Z,3.57
2022-09-27T08:55:37.598Z,4.63
2022-09-27T08:58:14.599Z,3.27
2022-09-27T09:00:43.547Z,3.67
2022-09-27T09:03:19.602Z,3.23
2022-09-27T09:05:57.418Z,4.20
2022-09-27T09:08:36.495Z,3.93
2022-09-27T09:11:37.788Z,3.23
2022-09-27T09:14:39.140Z,4.43
2022-09-27T09:17:19.379Z,4.40
2022-09-27T09:20:04.514Z,3.87
2022-09-27T09:22:58.523Z,4.13
2022-09-27T09:25:35.021Z,3.77
2022-09-27T09:28:22.166Z,5.60
2022-09-27T09:31:03.517Z,3.57
2022-09-27T09:33:35.445Z,4.23
2022-09-27T09:36:08.097Z,3.47
2022-09-27T09:38:40.196Z,4.13
2022-09-27T09:41:14.456Z,5.33
2022-09-27T09:43:52.252Z,4.23
2022-09-27T09:46:24.118Z,4.47
2022-09-27T09:48:56.313Z,4.17
2022-09-27T09:51:30.153Z,4.30
2022-09-27T09:54:04.252Z,4.43
2022-09-27T09:56:35.693Z,2.40
2022-09-27T09:59:15.327Z,4.77
2022-09-27T10:01:45.778Z,3.90
2022-09-27T10:04:19.587Z,4.47
2022-09-27T10:06:48.015Z,4.23
2022-09-27T10:09:17.793Z,4.00
2022-09-27T10:11:48.241Z,4.83
2022-09-27T10:14:19.467Z,3.60
2022-09-27T10:16:50.031Z,3.73
2022-09-27T10:19:23.214Z,4.13
2022-09-27T10:21:52.780Z,4.80
2022-09-27T10:24:21.059Z,3.97
2022-09-27T10:26:51.685Z,3.77
2022-09-27T10:29:34.912Z,5.17
2022-09-27T10:32:07.319Z,5.10
2022-09-27T10:34:37.448Z,4.33
2022-09-27T10:37:20.512Z,3.90
2022-09-27T10:39:51.210Z,3.80
2022-09-27T10:42:23.867Z,2.87
2022-09-27T10:44:54.203Z,4.17
2022-09-27T10:47:25.643Z,5.03
2022-09-27T10:50:03.291Z,4.17
2022-09-27T10:52:31.476Z,3.23
2022-09-27T10:55:03.086Z,4.87
2022-09-27T10:57:32.394Z,5.17
2022-09-27T11:00:05.521Z,4.00
2022-09-27T11:02:35.627Z,4.93
2022-09-27T11:05:14.734Z,4.40
2022-09-27T11:07:52.818Z,4.57
2022-09-27T11:10:28.942Z,5.17
2022-09-27T11:13:16.647Z,6.23
2022-09-27T11:16:02.898Z,4.47
2022-09-27T11:18:42.093Z,4.33
2022-09-27T11:21:20.104Z,3.87
2022-09-27T11:24:01.588Z,4.63
2022-09-27T11:26:42.203Z,3.67
2022-09-27T11:29:23.277Z,3.87
2022-09-27T11:32:06.424Z,4.27
2022-09-27T11:34:56.373Z,4.07
2022-09-27T11:37:34.572Z,4.27
2022-09-27T11:40:14.142Z,3.50
2022-09-27T11:43:02.414Z,3.43
2022-09-27T11:46:13.378Z,4.00
2022-09-27T11:48:50.093Z,3.57
2022-09-27T11:51:32.500Z,4.37
2022-09-27T11:54:14.845Z,3.70
2022-09-27T11:56:55.522Z,3.87
2022-09-27T11:59:43.533Z,3.70
2022-09-27T12:02:25.631Z,3.77
2022-09-27T12:05:19.801Z,4.13
2022-09-27T12:08:05.093Z,3.87
2022-09-27T12:10:33.518Z,3.77
2022-09-27T12:13:02.304Z,3.33
2022-09-27T12:15:38.609Z,3.70
2022-09-27T12:18:19.306Z,3.37
2022-09-27T12:20:49.293Z,3.90
2022-09-27T12:23:23.672Z,3.07
2022-09-27T12:25:57.652Z,3.03
2022-09-27T12:28:34.825Z,2.87
2022-09-27T12:31:28.341Z,2.77
2022-09-27T12:34:04.924Z,3.23
2022-09-27T12:36:39.035Z,2.57
2022-09-27T12:39:14.911Z,2.93
2022-09-27T12:41:49.453Z,2.77
2022-09-27T12:44:17.443Z,3.53
2022-09-27T12:46:56.862Z,2.83
2022-09-27T12:49:36.211Z,4.47
2022-09-27T12:52:12.017Z,3.27
2022-09-27T12:55:00.433Z,4.80
2022-09-27T12:57:44.099Z,3.20
2022-09-27T13:00:18.787Z,3.17
2022-09-27T13:03:17.171Z,5.13
2022-09-27T13:06:11.445Z,4.20
2022-09-27T13:08:59.583Z,2.93
2022-09-27T13:11:37.730Z,5.50
2022-09-27T13:14:06.720Z,4.60
2022-09-27T13:16:44.777Z,5.10
2022-09-27T13:19:39.909Z,3.30
2022-09-27T13:22:10.140Z,3.27
2022-09-27T13:24:55.811Z,4.03
2022-09-27T13:27:43.871Z,3.10
2022-09-27T13:30:58.478Z,3.47
2022-09-27T13:33:45.297Z,2.63
2022-09-27T13:36:34.750Z,3.27
2022-09-27T13:39:19.673Z,3.20
2022-09-27T13:42:09.664Z,3.67
2022-09-27T13:45:01.718Z,3.60
2022-09-27T13:47:36.214Z,3.63
2022-09-27T13:50:18.899Z,3.73
2022-09-27T13:53:03.582Z,2.90
2022-09-27T13:55:49.689Z,4.53
2022-09-27T13:58:34.616Z,2.97
2022-09-27T14:01:07.401Z,3.63
2022-09-27T14:03:38.596Z,2.97
2022-09-27T14:06:09.386Z,3.23
2022-09-27T14:08:41.529Z,3.90
2022-09-27T14:11:15.305Z,3.40
2022-09-27T14:13:48.524Z,2.23
2022-09-27T14:16:20.951Z,3.30
2022-09-27T14:18:53.373Z,3.60
2022-09-27T14:21:30.367Z,3.23
2022-09-27T14:24:28.374Z,3.93
2022-09-27T14:27:14.253Z,3.87
2022-09-27T14:29:47.034Z,3.83
2022-09-27T14:32:17.715Z,3.93
2022-09-27T14:34:46.241Z,4.33
2022-09-27T14:37:26.128Z,3.90
2022-09-27T14:40:00.612Z,4.13
2022-09-27T14:42:33.197Z,4.37
2022-09-27T14:45:07.715Z,4.13
2022-09-27T14:47:36.006Z,3.20
2022-09-27T14:50:19.385Z,3.40
2022-09-27T14:52:49.149Z,3.33
2022-09-27T14:55:20.290Z,3.20
2022-09-27T14:57:51.843Z,3.47
2022-09-27T15:00:24.768Z,3.43
2022-09-27T15:02:55.571Z,3.47
2022-09-27T15:05:26.668Z,2.70
2022-09-27T15:07:58.410Z,3.80
2022-09-27T15:10:31.529Z,3.27
2022-09-27T15:13:01.524Z,3.37
2022-09-27T15:15:34.155Z,3.17
2022-09-27T15:18:03.011Z,2.80
2022-09-27T15:20:35.152Z,1.97
2022-09-27T15:23:04.971Z,3.23
2022-09-27T15:25:36.047Z,3.87
2022-09-27T15:28:07.484Z,3.77
2022-09-27T15:30:39.958Z,4.17
2022-09-27T15:33:19.485Z,3.70
2022-09-27T15:35:51.630Z,2.87
2022-09-27T15:38:27.846Z,2.63
2022-09-27T15:41:01.216Z,2.50
2022-09-27T15:43:31.179Z,2.63
2022-09-27T15:46:03.177Z,2.50
2022-09-27T15:48:32.818Z,2.40
2022-09-27T15:51:01.228Z,3.00
2022-09-27T15:53:53.110Z,2.17
2022-09-27T15:56:21.118Z,1.97
2022-09-27T15:58:49.110Z,2.80
2022-09-27T16:01:21.370Z,2.00
2022-09-27T16:03:50.425Z,1.93
2022-09-27T16:06:19.472Z,2.77
2022-09-27T16:08:47.549Z,1.93
2022-09-27T16:11:17.344Z,2.50
2022-09-27T16:13:46.071Z,1.83
2022-09-27T16:16:20.804Z,2.70
2022-09-27T16:18:50.065Z,2.13
2022-09-27T16:21:18.295Z,2.60
2022-09-27T16:23:46.413Z,1.90
2022-09-27T16:26:14.549Z,2.00
2022-09-27T16:28:42.542Z,1.30
2022-09-27T16:31:11.456Z,2.17
2022-09-27T16:33:40.932Z,2.00
2022-09-27T16:36:14.674Z,1.60
2022-09-27T16:38:43.221Z,1.50
2022-09-27T16:41:11.237Z,1.90
2022-09-27T16:43:39.245Z,2.20
2022-09-27T16:46:09.348Z,2.00
2022-09-27T16:48:37.597Z,2.73
2022-09-27T16:51:26.036Z,2.37
2022-09-27T16:53:54.114Z,2.17
2022-09-27T16:56:22.852Z,1.67
2022-09-27T16:58:50.776Z,1.90
2022-09-27T17:01:18.716Z,1.53
2022-09-27T17:03:54.418Z,1.63
2022-09-27T17:06:26.463Z,2.20
2022-09-27T17:08:54.684Z,2.27
2022-09-27T17:11:23.053Z,2.60
2022-09-27T17:13:55.468Z,2.33
2022-09-27T17:16:24.209Z,1.73
2022-09-27T17:18:52.841Z,2.27
2022-09-27T17:21:20.896Z,2.10
2022-09-27T17:23:50.326Z,2.30
2022-09-27T17:26:20.090Z,1.63
2022-09-27T17:28:48.508Z,1.60
2022-09-27T17:31:18.628Z,1.67
2022-09-27T17:33:50.481Z,3.40
2022-09-27T17:36:22.997Z,3.10
2022-09-27T17:38:53.482Z,2.87
2022-09-27T17:41:24.341Z,2.07
2022-09-27T17:43:55.031Z,1.70
2022-09-27T17:46:26.402Z,1.60
2022-09-27T17:49:12.184Z,2.33
2022-09-27T17:51:41.856Z,1.87
2022-09-27T17:54:12.373Z,1.53
2022-09-27T17:56:41.282Z,2.00
2022-09-27T17:59:10.245Z,1.43
2022-09-27T18:01:39.718Z,2.10
2022-09-27T18:04:10.196Z,2.10
2022-09-27T18:06:49.623Z,2.00
2022-09-27T18:09:19.819Z,1.83
2022-09-27T18:11:48.296Z,2.07
2022-09-27T18:14:16.554Z,1.50
2022-09-27T18:16:44.959Z,1.57
2022-09-27T18:19:14.789Z,1.57
2022-09-27T18:21:42.854Z,1.90
2022-09-27T18:24:11.779Z,1.40
2022-09-27T18:26:41.868Z,1.80
2022-09-27T18:29:14.049Z,1.73
2022-09-27T18:31:47.517Z,1.67
2022-09-27T18:34:16.763Z,2.10
2022-09-27T18:36:45.007Z,1.50
2022-09-27T18:39:18.329Z,1.20
2022-09-27T18:41:49.345Z,1.43
2022-09-27T18:44:18.952Z,1.50
2022-09-27T18:46:47.650Z,1.47
2022-09-27T18:49:16.203Z,1.20
2022-09-27T18:51:47.035Z,1.57
2022-09-27T18:54:17.252Z,1.90
2022-09-27T18:56:45.458Z,1.50
2022-09-27T18:59:15.133Z,1.90
2022-09-27T19:01:46.015Z,1.90
2022-09-27T19:04:21.471Z,1.63
2022-09-27T19:06:52.328Z,1.83
2022-09-27T19:09:20.460Z,1.83
2022-09-27T19:11:48.825Z,2.10
2022-09-27T19:14:19.898Z,2.27
2022-09-27T19:16:48.336Z,3.23
2022-09-27T19:19:16.994Z,2.87
2022-09-27T19:21:45.324Z,1.70
2022-09-27T19:24:14.254Z,3.17
2022-09-27T19:26:42.791Z,1.80
2022-09-27T19:29:10.984Z,2.10
2022-09-27T19:31:40.631Z,1.77
2022-09-27T19:34:08.899Z,2.27
2022-09-27T19:36:36.925Z,1.87
2022-09-27T19:39:05.519Z,2.40
2022-09-27T19:41:33.534Z,3.47
2022-09-27T19:44:01.904Z,2.63
2022-09-27T19:46:30.188Z,2.23
2022-09-27T19:49:01.689Z,2.53
2022-09-27T19:51:31.209Z,2.17
2022-09-27T19:53:59.479Z,1.67
2022-09-27T19:56:28.126Z,2.07
2022-09-27T19:58:56.016Z,2.23
2022-09-27T20:01:26.179Z,2.60
2022-09-27T20:03:56.895Z,2.27
2022-09-27T20:06:26.847Z,1.57
2022-09-27T20:08:55.806Z,1.77
2022-09-27T20:11:26.300Z,2.70
2022-09-27T20:13:55.122Z,2.47
2022-09-27T20:16:24.788Z,2.13
2022-09-27T20:18:54.610Z,3.53
2022-09-27T20:21:24.430Z,3.17
2022-09-27T20:23:56.145Z,2.40
2022-09-27T20:26:25.467Z,2.57
2022-09-27T20:28:54.969Z,2.77
2022-09-27T20:31:25.245Z,2.90
2022-09-27T20:33:53.961Z,2.43
2022-09-27T20:36:24.211Z,2.10
2022-09-27T20:38:59.537Z,2.57
2022-09-27T20:41:31.791Z,2.13
2022-09-27T20:44:01.602Z,2.27
2022-09-27T20:46:29.641Z,2.10
2022-09-27T20:48:59.598Z,1.90
2022-09-27T20:51:28.910Z,2.87
2022-09-27T20:53:58.292Z,2.50
2022-09-27T20:56:30.004Z,2.23
2022-09-27T20:58:59.784Z,2.47
2022-09-27T21:01:30.233Z,2.73
2022-09-27T21:04:01.039Z,2.33
2022-09-27T21:06:30.458Z,2.23
2022-09-27T21:09:01.054Z,2.07
2022-09-27T21:11:29.379Z,2.33
2022-09-27T21:13:57.439Z,2.03
2022-09-27T21:16:27.943Z,2.43
2022-09-27T21:18:58.682Z,2.53
2022-09-27T21:21:27.360Z,2.37
2022-09-27T21:23:57.106Z,2.27
2022-09-27T21:26:28.454Z,2.37
2022-09-27T21:28:57.983Z,1.80
2022-09-27T21:31:28.042Z,1.80
2022-09-27T21:33:59.199Z,1.90
2022-09-27T21:36:29.160Z,2.17
2022-09-27T21:38:57.501Z,2.07
2022-09-27T21:41:27.755Z,2.17
2022-09-27T21:43:56.365Z,1.70
2022-09-27T21:46:26.358Z,2.00
2022-09-27T21:48:56.655Z,2.60
2022-09-27T21:51:26.205Z,1.50
2022-09-27T21:53:57.102Z,2.33
2022-09-27T21:56:29.972Z,1.97
2022-09-27T21:58:57.941Z,1.83
2022-09-27T22:01:28.946Z,2.20
2022-09-27T22:03:58.095Z,2.10
2022-09-27T22:06:28.096Z,1.90
2022-09-27T22:08:57.181Z,1.77
2022-09-27T22:11:31.139Z,1.97
2022-09-27T22:13:59.300Z,2.17
2022-09-27T22:16:28.096Z,2.23
2022-09-27T22:18:57.710Z,2.03
2022-09-27T22:21:27.994Z,2.00
2022-09-27T22:23:56.854Z,2.63
2022-09-27T22:26:28.135Z,1.60
2022-09-27T22:28:56.557Z,1.87
2022-09-27T22:31:25.086Z,2.43
2022-09-27T22:33:54.823Z,2.00
2022-09-27T22:36:24.053Z,2.70
2022-09-27T22:38:53.111Z,2.17
2022-09-27T22:41:21.905Z,1.83
2022-09-27T22:43:53.578Z,2.23
2022-09-27T22:46:22.302Z,1.97
2022-09-27T22:48:50.927Z,2.53
2022-09-27T22:51:19.423Z,1.67
2022-09-27T22:53:47.729Z,2.30
2022-09-27T22:56:17.904Z,2.73
2022-09-27T22:58:47.408Z,2.10
2022-09-27T23:01:18.245Z,2.00
2022-09-27T23:03:47.373Z,2.20
2022-09-27T23:06:20.621Z,2.23
2022-09-27T23:08:48.726Z,2.17
2022-09-27T23:11:18.825Z,2.03
2022-09-27T23:13:48.388Z,1.40
2022-09-27T23:16:20.353Z,2.40
2022-09-27T23:18:48.893Z,2.07
2022-09-27T23:21:17.447Z,1.90
2022-09-27T23:23:47.054Z,1.87
2022-09-27T23:26:17.411Z,1.80
2022-09-27T23:28:45.820Z,3.07
2022-09-27T23:31:16.916Z,2.40
2022-09-27T23:33:48.983Z,1.90
2022-09-27T23:36:18.598Z,2.80
2022-09-27T23:38:48.569Z,1.90
2022-09-27T23:41:17.945Z,2.70
2022-09-27T23:43:48.235Z,1.77
2022-09-27T23:46:16.923Z,1.83
2022-09-27T23:48:46.787Z,2.00
2022-09-27T23:51:14.985Z,2.43
2022-09-27T23:53:43.017Z,1.63
2022-09-27T23:56:15.241Z,2.63
2022-09-27T23:58:45.538Z,2.10
